Time;durP1;ratioP1;P1;durP2;ratioP2;P2;SDS_P1;SDS_P2;PMS_P1;PMS_P2;Temp;Humidity;BMP_temperature;BMP_pressure;BME280_temperature;BME280_humidity;BME280_pressure;Samples;Min_cycle;Max_cycle;Signal;HPM_P1;HPM_P2
2023/09/02 00:00:13;;;;;;;5.43;3.67;;;;;;;19.05;98.00;100056.06;4920398;28;20153;-86
2023/09/02 00:02:42;;;;;;;11.60;4.85;;;;;;;19.03;98.49;100055.44;4922816;28;20058;-86
2023/09/02 00:05:08;;;;;;;12.13;5.18;;;;;;;19.03;98.69;100054.56;4906219;28;21035;-86
2023/09/02 00:07:35;;;;;;;7.53;4.43;;;;;;;19.04;98.68;100058.94;4924408;29;20074;-87
2023/09/02 00:10:03;;;;;;;11.35;4.93;;;;;;;19.01;98.70;100056.63;4937280;28;20475;-86
2023/09/02 00:12:30;;;;;;;9.45;4.57;;;;;;;19.01;98.77;100062.84;4936277;28;20134;-87
2023/09/02 00:14:57;;;;;;;10.00;4.72;;;;;;;19.03;98.75;100066.19;4937815;28;20770;-87
2023/09/02 00:17:24;;;;;;;9.40;5.07;;;;;;;19.03;98.48;100062.66;4912774;28;20051;-87
2023/09/02 00:19:51;;;;;;;73.38;6.93;;;;;;;19.01;99.06;100057.47;4939920;28;20053;-87
2023/09/02 00:22:18;;;;;;;26.48;4.90;;;;;;;19.02;99.19;100061.00;4924646;28;20055;-87
2023/09/02 00:24:45;;;;;;;16.40;4.75;;;;;;;19.00;98.77;100063.03;4922395;28;20144;-86
2023/09/02 00:27:12;;;;;;;7.07;4.30;;;;;;;18.99;98.66;100074.81;4938373;28;20051;-86
2023/09/02 00:29:38;;;;;;;22.10;4.68;;;;;;;18.95;98.44;100068.94;4938778;28;20055;-85
2023/09/02 00:32:05;;;;;;;8.85;4.45;;;;;;;18.96;98.42;100064.44;4924025;28;20138;-86
2023/09/02 00:34:33;;;;;;;25.25;5.15;;;;;;;18.92;98.52;100061.25;4923477;28;20051;-85
2023/09/02 00:37:00;;;;;;;22.10;5.03;;;;;;;18.94;98.30;100069.97;4908166;28;20051;-85
2023/09/02 00:39:27;;;;;;;16.92;4.25;;;;;;;18.93;98.85;100068.31;4910118;28;20040;-86
2023/09/02 00:41:55;;;;;;;9.90;4.03;;;;;;;18.93;98.52;100062.94;4934870;28;20128;-86
2023/09/02 00:44:22;;;;;;;8.85;4.75;;;;;;;18.92;98.67;100063.94;4910280;28;20059;-86
2023/09/02 00:46:49;;;;;;;16.90;4.30;;;;;;;18.94;98.55;100074.53;4915640;28;20043;-86
2023/09/02 00:49:16;;;;;;;9.45;4.07;;;;;;;18.92;98.86;100068.50;4937564;28;20510;-86
2023/09/02 00:51:43;;;;;;;17.13;4.57;;;;;;;18.90;98.69;100068.66;4921366;28;20047;-86
2023/09/02 00:54:10;;;;;;;18.23;4.65;;;;;;;18.87;98.73;100064.50;4904662;28;20058;-86
2023/09/02 00:56:37;;;;;;;25.48;4.93;;;;;;;18.88;98.90;100070.72;4936409;28;20044;-86
2023/09/02 00:59:04;;;;;;;28.98;4.32;;;;;;;18.88;98.63;100070.72;4896400;28;20651;-86
2023/09/02 01:01:33;;;;;;;15.63;3.97;;;;;;;18.86;98.43;100062.00;4928368;28;20745;-86
2023/09/02 01:04:02;;;;;;;24.65;4.15;;;;;;;18.85;98.46;100063.88;4950412;28;20048;-86
2023/09/02 01:06:29;;;;;;;6.32;3.25;;;;;;;18.84;98.75;100072.09;4926949;28;20058;-86
2023/09/02 01:08:56;;;;;;;9.57;3.63;;;;;;;18.84;98.60;100069.41;4909795;28;20039;-86
2023/09/02 01:11:22;;;;;;;9.30;3.60;;;;;;;18.83;98.74;100073.13;4924319;28;20130;-86
2023/09/02 01:13:49;;;;;;;10.48;3.15;;;;;;;18.84;98.88;100077.50;4925053;28;20751;-86
2023/09/02 01:16:16;;;;;;;19.65;3.47;;;;;;;18.83;98.82;100063.22;4937927;28;20054;-86
2023/09/02 01:18:43;;;;;;;12.45;3.15;;;;;;;18.81;98.83;100065.25;4889626;28;20050;-85
2023/09/02 01:21:19;;;;;;;4.32;2.97;;;;;;;18.77;98.47;100069.31;4925667;28;20055;-85
2023/09/02 01:24:11;;;;;;;13.88;2.90;;;;;;;18.74;98.05;100071.50;4924752;28;20094;-86
2023/09/02 01:27:03;;;;;;;24.52;3.47;;;;;;;18.70;97.82;100084.50;4938072;28;20125;-86
2023/09/02 01:29:34;;;;;;;10.68;2.92;;;;;;;18.76;97.79;100082.97;4922915;28;20053;-86
2023/09/02 01:32:01;;;;;;;8.23;2.60;;;;;;;18.76;98.03;100085.66;4923986;28;20085;-85
2023/09/02 01:34:30;;;;;;;9.65;2.63;;;;;;;18.73;98.22;100084.13;4889549;28;20055;-86
2023/09/02 01:36:59;;;;;;;21.30;2.78;;;;;;;18.69;97.82;100090.03;4904783;28;20039;-86
2023/09/02 01:39:26;;;;;;;35.15;3.05;;;;;;;18.70;97.69;100092.56;4910618;28;20045;-86
2023/09/02 01:41:53;;;;;;;13.25;2.30;;;;;;;18.66;97.76;100093.94;4917226;28;20407;-86
2023/09/02 01:44:21;;;;;;;41.50;2.70;;;;;;;18.68;97.34;100093.78;4923091;28;20049;-86
2023/09/02 01:46:48;;;;;;;29.02;2.83;;;;;;;18.66;97.41;100092.06;4924190;28;20531;-85
2023/09/02 01:49:16;;;;;;;8.70;2.45;;;;;;;18.67;97.28;100092.91;4947755;28;20510;-85
2023/09/02 01:51:43;;;;;;;13.65;2.42;;;;;;;18.63;97.68;100092.44;4936218;28;20828;-85
2023/09/02 01:54:10;;;;;;;4.53;2.17;;;;;;;18.66;97.78;100096.63;4894704;28;20039;-86
2023/09/02 01:56:37;;;;;;;10.30;1.98;;;;;;;18.64;97.48;100095.97;4938269;28;20054;-86
2023/09/02 01:59:04;;;;;;;16.63;2.45;;;;;;;18.63;97.46;100097.00;4889393;28;20442;-86
2023/09/02 02:01:31;;;;;;;4.03;2.35;;;;;;;18.61;97.16;100097.16;4901882;29;20052;-86
2023/09/02 02:04:09;;;;;;;5.32;2.00;;;;;;;18.58;96.79;100096.69;4895969;28;20057;-86
2023/09/02 02:06:38;;;;;;;12.52;2.63;;;;;;;18.60;97.19;100102.75;4925338;28;20047;-86
2023/09/02 02:09:08;;;;;;;15.02;2.70;;;;;;;18.59;96.93;100103.75;4918752;28;20067;-86
2023/09/02 02:11:36;;;;;;;2.95;2.03;;;;;;;18.59;97.18;100101.88;4918704;28;20103;-85
2023/09/02 02:14:04;;;;;;;4.22;2.35;;;;;;;18.59;97.15;100109.94;4882756;28;20487;-86
2023/09/02 02:16:31;;;;;;;4.82;1.95;;;;;;;18.60;97.17;100102.75;4919869;28;20043;-86
2023/09/02 02:18:58;;;;;;;3.95;1.92;;;;;;;18.60;97.07;100116.19;4922342;28;20102;-86
2023/09/02 02:21:29;;;;;;;9.45;2.42;;;;;;;18.57;97.02;100111.16;4907776;28;20059;-86
2023/09/02 02:23:56;;;;;;;2.92;1.80;;;;;;;18.59;96.94;100118.03;4919597;28;20095;-85
2023/09/02 02:26:24;;;;;;;3.33;1.80;;;;;;;18.57;96.97;100103.09;4920145;28;20047;-85
2023/09/02 02:28:51;;;;;;;4.82;1.80;;;;;;;18.61;96.97;100110.63;4920699;28;20130;-85
2023/09/02 02:31:18;;;;;;;3.97;1.98;;;;;;;18.62;97.13;100116.81;4916949;28;20081;-85
2023/09/02 02:33:44;;;;;;;4.22;1.90;;;;;;;18.59;96.98;100109.94;4914164;28;20047;-85
2023/09/02 02:36:11;;;;;;;5.57;2.05;;;;;;;18.61;96.73;100113.31;4922799;28;20058;-86
2023/09/02 02:38:38;;;;;;;10.23;2.03;;;;;;;18.61;96.87;100120.53;4908434;28;20400;-85
2023/09/02 02:41:05;;;;;;;11.82;2.30;;;;;;;18.59;96.87;100112.63;4930227;28;20094;-85
2023/09/02 02:43:32;;;;;;;6.97;2.28;;;;;;;18.57;96.58;100112.00;4924118;28;20773;-85
2023/09/02 02:45:59;;;;;;;6.15;2.47;;;;;;;18.55;96.76;100114.03;4919008;28;20090;-85
2023/09/02 02:48:30;;;;;;;3.90;1.65;;;;;;;18.57;96.95;100114.69;4923725;28;20511;-86
2023/09/02 02:50:57;;;;;;;4.57;2.10;;;;;;;18.58;96.90;100120.91;4923333;28;20066;-85
2023/09/02 02:53:25;;;;;;;5.68;1.92;;;;;;;18.57;97.11;100112.00;4906398;29;20205;-85
2023/09/02 02:55:55;;;;;;;4.05;1.85;;;;;;;18.58;96.98;100113.66;4875377;28;20055;-85
2023/09/02 02:58:22;;;;;;;13.23;2.35;;;;;;;18.55;96.92;100105.97;4912588;28;20047;-85
2023/09/02 03:00:49;;;;;;;22.80;2.13;;;;;;;18.54;96.82;100111.53;4935849;28;20163;-85
2023/09/02 03:03:20;;;;;;;17.58;2.45;;;;;;;18.50;96.81;100105.69;4932784;28;20110;-85
2023/09/02 03:05:48;;;;;;;10.77;2.30;;;;;;;18.52;96.86;100114.41;4892700;28;20062;-85
2023/09/02 03:08:15;;;;;;;10.50;2.45;;;;;;;18.51;97.39;100117.25;4913699;28;20074;-85
2023/09/02 03:10:42;;;;;;;10.57;2.42;;;;;;;18.47;96.43;100114.13;4909397;28;20054;-85
2023/09/02 03:13:08;;;;;;;5.78;2.10;;;;;;;18.47;96.11;100121.31;4921395;28;20440;-85
2023/09/02 03:15:36;;;;;;;19.25;2.70;;;;;;;18.46;96.02;100119.66;4923118;28;20074;-85
2023/09/02 03:18:04;;;;;;;15.95;2.47;;;;;;;18.43;95.91;100112.78;4898914;28;20098;-85
2023/09/02 03:20:32;;;;;;;16.20;2.20;;;;;;;18.41;95.65;100126.41;4922184;28;20056;-85
2023/09/02 03:23:00;;;;;;;26.83;2.47;;;;;;;18.38;95.38;100120.56;4928830;28;20110;-85
2023/09/02 03:25:30;;;;;;;18.70;2.15;;;;;;;18.38;95.31;100126.75;4935488;28;20047;-85
2023/09/02 03:27:59;;;;;;;28.65;2.40;;;;;;;18.36;95.44;100125.28;4907318;28;20059;-85
2023/09/02 03:30:26;;;;;;;3.75;1.77;;;;;;;18.32;95.48;100127.50;4908174;28;20043;-85
2023/09/02 03:32:53;;;;;;;6.75;1.90;;;;;;;18.34;95.68;100133.53;4931098;28;20051;-85
2023/09/02 03:35:20;;;;;;;5.93;1.92;;;;;;;18.36;95.61;100133.34;4923317;28;20055;-85
2023/09/02 03:37:47;;;;;;;1.95;1.75;;;;;;;18.34;95.43;100138.91;4932342;28;20044;-85
2023/09/02 03:40:15;;;;;;;4.47;1.85;;;;;;;18.36;95.85;100139.53;4923131;28;20043;-85
2023/09/02 03:42:42;;;;;;;20.17;2.58;;;;;;;18.35;95.77;100139.75;4910663;28;20519;-85
2023/09/02 03:45:09;;;;;;;4.22;1.60;;;;;;;18.35;95.64;100139.75;4926388;28;20051;-85
2023/09/02 03:47:36;;;;;;;13.23;2.40;;;;;;;18.36;95.96;100138.72;4928483;28;20047;-85
2023/09/02 03:50:06;;;;;;;4.88;1.77;;;;;;;18.36;95.76;100142.22;4919308;28;20533;-85
2023/09/02 03:52:33;;;;;;;8.55;2.13;;;;;;;18.36;95.93;100142.22;4891355;28;20154;-85
2023/09/02 03:55:00;;;;;;;2.65;1.60;;;;;;;18.36;95.90;100144.91;4914540;28;20066;-85
2023/09/02 03:57:28;;;;;;;45.88;3.58;;;;;;;18.34;95.75;100144.28;4907809;29;20106;-85
2023/09/02 03:59:55;;;;;;;42.58;3.28;;;;;;;18.33;95.30;100145.28;4922274;28;20165;-85
2023/09/02 04:02:22;;;;;;;6.47;2.10;;;;;;;18.32;95.12;100148.13;4928271;28;20147;-85
2023/09/02 04:04:49;;;;;;;20.55;2.70;;;;;;;18.28;95.02;100152.22;4910903;28;20047;-85
2023/09/02 04:07:16;;;;;;;49.83;3.20;;;;;;;18.25;94.56;100150.72;4926027;28;20412;-85
2023/09/02 04:09:43;;;;;;;13.10;2.30;;;;;;;18.23;94.50;100156.25;4925622;28;20047;-84
2023/09/02 04:12:10;;;;;;;26.25;3.00;;;;;;;18.22;94.53;100159.97;4918664;28;20193;-85
2023/09/02 04:14:37;;;;;;;22.33;3.00;;;;;;;18.17;93.98;100161.53;4921476;28;20512;-86
2023/09/02 04:17:04;;;;;;;47.50;4.13;;;;;;;18.12;94.67;100161.22;4909222;28;20049;-86
2023/09/02 04:19:32;;;;;;;19.73;2.95;;;;;;;18.03;94.58;100164.97;4924141;28;20055;-85
2023/09/02 04:21:59;;;;;;;10.52;2.45;;;;;;;18.01;94.93;100170.50;4925373;28;20055;-84
2023/09/02 04:24:29;;;;;;;11.07;2.75;;;;;;;17.96;95.14;100171.03;4905242;28;20052;-85
2023/09/02 04:26:57;;;;;;;5.40;2.40;;;;;;;17.98;95.28;100174.38;4907195;28;20050;-85
2023/09/02 04:29:24;;;;;;;5.03;2.20;;;;;;;17.98;95.27;100169.00;4937096;28;20055;-85
2023/09/02 04:31:52;;;;;;;20.30;2.63;;;;;;;17.99;95.13;100176.06;4907942;28;20496;-85
2023/09/02 04:34:22;;;;;;;17.70;2.25;;;;;;;17.98;94.48;100174.38;4926178;28;20114;-84
2023/09/02 04:36:50;;;;;;;9.13;2.17;;;;;;;17.96;94.55;100175.56;4906917;28;20508;-85
2023/09/02 04:39:17;;;;;;;8.82;2.33;;;;;;;17.94;94.32;100173.06;4906790;28;20039;-85
2023/09/02 04:41:46;;;;;;;2.15;1.85;;;;;;;17.94;94.28;100175.75;4902584;28;20047;-85
2023/09/02 04:44:16;;;;;;;4.03;1.73;;;;;;;17.92;93.88;100177.78;4906029;28;20151;-85
2023/09/02 04:46:43;;;;;;;2.33;1.73;;;;;;;17.89;93.60;100180.81;4927244;28;20054;-85
2023/09/02 04:49:11;;;;;;;4.28;1.60;;;;;;;17.89;93.55;100171.94;4900449;28;20078;-85
2023/09/02 04:51:39;;;;;;;1.40;1.30;;;;;;;17.90;93.29;100176.28;4890638;29;20143;-85
2023/09/02 04:54:06;;;;;;;2.65;1.48;;;;;;;17.91;93.27;100178.78;4910128;28;20051;-85
2023/09/02 04:56:34;;;;;;;1.75;1.65;;;;;;;17.92;93.20;100180.47;4922783;28;20051;-85
2023/09/02 04:59:01;;;;;;;3.13;2.13;;;;;;;17.93;93.30;100176.75;4920139;28;20055;-85
2023/09/02 05:01:27;;;;;;;3.55;1.63;;;;;;;17.90;93.38;100173.59;4919019;28;20062;-85
2023/09/02 05:03:57;;;;;;;6.47;2.13;;;;;;;17.88;93.62;100172.91;4912837;28;20054;-85
2023/09/02 05:06:24;;;;;;;2.22;1.50;;;;;;;17.85;93.42;100187.53;4923524;28;20140;-85
2023/09/02 05:08:54;;;;;;;3.70;1.92;;;;;;;17.81;93.30;100186.22;4909596;28;20043;-85
2023/09/02 05:11:23;;;;;;;9.02;1.95;;;;;;;17.82;93.17;100184.38;4932391;28;20047;-85
2023/09/02 05:13:50;;;;;;;11.57;2.10;;;;;;;17.78;93.52;100187.38;4925579;28;20130;-85
2023/09/02 05:16:17;;;;;;;4.65;1.73;;;;;;;17.81;93.60;100188.06;4920678;29;20495;-84
2023/09/02 05:18:44;;;;;;;5.50;1.83;;;;;;;17.83;93.65;100194.09;4921740;28;20126;-85
2023/09/02 05:21:10;;;;;;;4.47;1.95;;;;;;;17.84;93.41;100196.63;4936930;28;20130;-85
2023/09/02 05:23:37;;;;;;;2.00;1.85;;;;;;;17.86;93.56;100197.28;4902659;28;20047;-85
2023/09/02 05:26:04;;;;;;;6.97;2.17;;;;;;;17.90;93.38;100203.13;4919156;28;20148;-85
2023/09/02 05:28:32;;;;;;;4.57;2.28;;;;;;;17.90;93.73;100201.28;4911222;28;20051;-85
2023/09/02 05:30:59;;;;;;;3.92;2.15;;;;;;;17.90;93.74;100198.59;4907958;28;20044;-85
2023/09/02 05:33:26;;;;;;;2.22;1.77;;;;;;;17.92;93.85;100193.91;4909870;28;20055;-85
2023/09/02 05:35:53;;;;;;;3.33;1.83;;;;;;;17.93;93.40;100197.41;4922017;28;20039;-85
2023/09/02 05:38:20;;;;;;;2.72;1.95;;;;;;;17.94;93.15;100197.25;4917972;28;20047;-85
2023/09/02 05:40:46;;;;;;;3.90;1.60;;;;;;;18.00;93.32;100199.22;4933738;28;20111;-85
2023/09/02 05:43:13;;;;;;;5.95;1.90;;;;;;;18.00;93.49;100188.47;4916776;28;20051;-84
2023/09/02 05:45:40;;;;;;;3.85;2.13;;;;;;;18.04;92.91;100188.97;4921403;28;20043;-85
2023/09/02 05:48:07;;;;;;;3.58;2.05;;;;;;;18.06;93.41;100186.09;4916779;28;20054;-85
2023/09/02 05:50:34;;;;;;;3.67;2.30;;;;;;;18.07;92.91;100187.78;4878078;28;20055;-85
2023/09/02 05:53:01;;;;;;;2.60;2.20;;;;;;;18.07;92.71;100191.31;4921809;28;20411;-85
2023/09/02 05:55:28;;;;;;;3.15;2.05;;;;;;;18.07;92.91;100193.16;4919581;29;20067;-85
2023/09/02 05:57:55;;;;;;;4.15;2.17;;;;;;;18.05;92.98;100198.69;4926526;28;20055;-85
2023/09/02 06:00:22;;;;;;;2.55;2.05;;;;;;;18.06;93.05;100197.69;4894171;28;20491;-86
2023/09/02 06:02:49;;;;;;;2.53;2.33;;;;;;;18.08;93.24;100197.50;4915213;28;20058;-85
2023/09/02 06:05:15;;;;;;;5.45;2.60;;;;;;;18.10;93.84;100198.19;4919649;28;20058;-85
2023/09/02 06:07:42;;;;;;;6.57;2.67;;;;;;;18.12;94.02;100197.00;4920714;28;20063;-85
2023/09/02 06:10:09;;;;;;;3.65;2.47;;;;;;;18.15;93.87;100204.69;4933113;28;20051;-86
2023/09/02 06:12:36;;;;;;;3.88;2.30;;;;;;;18.15;93.77;100206.56;4908486;28;20071;-85
2023/09/02 06:15:03;;;;;;;3.80;1.70;;;;;;;18.13;94.26;100212.09;4936503;28;20103;-85
2023/09/02 06:17:31;;;;;;;3.60;2.50;;;;;;;18.17;94.23;100209.91;4906996;28;20052;-85
2023/09/02 06:19:59;;;;;;;1.85;1.73;;;;;;;18.17;93.98;100201.84;4923495;28;20123;-85
2023/09/02 06:22:26;;;;;;;3.13;2.20;;;;;;;18.20;93.87;100206.88;4923620;28;20047;-85
2023/09/02 06:24:55;;;;;;;7.57;2.25;;;;;;;18.22;93.92;100204.84;4926625;28;20130;-85
2023/09/02 06:27:21;;;;;;;2.20;1.77;;;;;;;18.25;94.02;100207.16;4919368;28;20095;-86
2023/09/02 06:29:48;;;;;;;2.80;2.00;;;;;;;18.28;93.76;100206.81;4947205;28;20050;-85
2023/09/02 06:32:15;;;;;;;2.25;1.85;;;;;;;18.30;93.51;100207.47;4949231;28;20126;-85
2023/09/02 06:34:42;;;;;;;2.10;1.77;;;;;;;18.35;93.93;100213.16;4920834;28;20063;-86
2023/09/02 06:37:09;;;;;;;3.65;2.40;;;;;;;18.40;94.52;100213.47;4950972;28;20178;-85
2023/09/02 06:39:36;;;;;;;4.22;1.55;;;;;;;18.48;94.72;100217.13;4934966;28;20127;-85
2023/09/02 06:42:03;;;;;;;2.08;1.80;;;;;;;18.50;94.74;100207.03;4936903;28;20059;-85
2023/09/02 06:44:33;;;;;;;2.35;1.80;;;;;;;18.54;94.56;100211.84;4908835;28;20082;-86
2023/09/02 06:47:00;;;;;;;2.50;1.92;;;;;;;18.58;94.79;100209.66;4912428;28;20103;-85
2023/09/02 06:49:26;;;;;;;2.33;1.75;;;;;;;18.58;94.59;100207.81;4920708;28;20050;-85
2023/09/02 06:51:53;;;;;;;2.00;1.80;;;;;;;18.59;94.38;100212.16;4937186;28;20051;-86
2023/09/02 06:54:20;;;;;;;2.90;1.50;;;;;;;18.64;94.64;100217.84;4953285;28;20126;-86
2023/09/02 06:56:47;;;;;;;2.28;1.75;;;;;;;18.66;94.38;100223.06;4937874;28;20039;-85
2023/09/02 06:59:14;;;;;;;2.95;1.55;;;;;;;18.70;94.84;100219.00;4923529;28;20081;-85
2023/09/02 07:01:40;;;;;;;1.90;1.70;;;;;;;18.73;95.12;100215.94;4940341;28;20055;-85
2023/09/02 07:04:07;;;;;;;3.65;1.90;;;;;;;18.78;95.21;100223.50;4951593;28;20082;-85
2023/09/02 07:06:34;;;;;;;4.00;1.92;;;;;;;18.79;95.20;100222.47;4924920;28;20055;-86
2023/09/02 07:09:02;;;;;;;1.88;1.52;;;;;;;18.84;95.14;100222.78;4926527;28;20054;-85
2023/09/02 07:11:28;;;;;;;3.35;1.80;;;;;;;18.86;95.08;100224.28;4940616;28;20060;-85
2023/09/02 07:13:56;;;;;;;3.00;1.65;;;;;;;18.86;94.85;100218.06;4940608;28;20054;-86
2023/09/02 07:16:23;;;;;;;2.20;1.85;;;;;;;18.87;94.70;100223.25;4924191;28;20047;-86
2023/09/02 07:18:50;;;;;;;3.95;1.60;;;;;;;18.89;94.96;100227.63;4920800;28;20134;-85
2023/09/02 07:21:22;;;;;;;3.97;1.70;;;;;;;18.91;95.54;100233.66;4939729;28;20050;-85
2023/09/02 07:23:50;;;;;;;4.20;1.90;;;;;;;18.95;95.37;100241.19;4931889;28;20508;-85
2023/09/02 07:26:27;;;;;;;3.15;1.92;;;;;;;18.96;95.49;100244.72;4937391;28;20051;-85
2023/09/02 07:28:54;;;;;;;2.70;1.98;;;;;;;18.99;95.81;100239.81;4927958;28;20055;-86
2023/09/02 07:31:21;;;;;;;2.53;1.67;;;;;;;19.01;96.07;100228.88;4939998;28;20129;-86
2023/09/02 07:33:48;;;;;;;5.53;1.75;;;;;;;19.02;95.74;100235.94;4938298;28;20127;-85
2023/09/02 07:36:14;;;;;;;4.22;1.95;;;;;;;19.05;96.01;100240.94;4928716;28;20102;-79
2023/09/02 07:38:44;;;;;;;2.58;1.90;;;;;;;19.05;95.83;100241.78;4943472;28;20058;-80
2023/09/02 07:41:10;;;;;;;3.08;2.03;;;;;;;19.05;95.86;100241.78;4951260;28;20054;-80
2023/09/02 07:43:37;;;;;;;4.78;1.80;;;;;;;19.09;95.78;100247.66;4940236;28;20040;-80
2023/09/02 07:46:04;;;;;;;4.00;1.83;;;;;;;19.09;95.92;100256.56;4928001;28;20131;-81
2023/09/02 07:48:31;;;;;;;5.70;2.38;;;;;;;19.13;95.97;100256.19;4936629;28;20058;-81
2023/09/02 07:50:58;;;;;;;2.80;2.00;;;;;;;19.13;95.39;100262.41;4940003;28;20075;-81
2023/09/02 07:53:24;;;;;;;2.80;2.20;;;;;;;19.16;95.54;100263.88;4909725;28;20043;-81
2023/09/02 07:55:52;;;;;;;5.05;2.22;;;;;;;19.19;95.23;100272.47;4940960;28;20047;-81
2023/09/02 07:58:26;;;;;;;2.80;2.20;;;;;;;19.19;95.27;100264.38;4907564;28;20130;-82
2023/09/02 08:00:56;;;;;;;5.47;2.38;;;;;;;19.20;95.22;100266.03;4937256;28;20059;-81
2023/09/02 08:03:24;;;;;;;2.95;2.53;;;;;;;19.23;95.04;100268.41;4931803;28;20142;-82
2023/09/02 08:05:51;;;;;;;4.43;2.63;;;;;;;19.25;94.83;100269.03;4953463;28;20157;-85
2023/09/02 08:08:17;;;;;;;4.65;2.20;;;;;;;19.31;94.80;100267.50;4934808;28;20567;-84
2023/09/02 08:10:44;;;;;;;4.28;2.33;;;;;;;19.32;95.12;100263.78;4944598;28;20130;-85
2023/09/02 08:13:11;;;;;;;4.13;2.40;;;;;;;19.34;94.99;100263.59;4943467;28;20044;-84
2023/09/02 08:15:38;;;;;;;3.10;2.35;;;;;;;19.37;94.83;100265.91;4923712;29;20043;-85
2023/09/02 08:18:05;;;;;;;2.50;2.28;;;;;;;19.40;95.14;100262.84;4943181;28;20050;-87
2023/09/02 08:20:33;;;;;;;3.38;2.25;;;;;;;19.42;95.47;100260.81;4924219;28;20051;-87
2023/09/02 08:23:00;;;;;;;4.70;2.05;;;;;;;19.47;95.46;100266.50;4909810;28;20110;-85
2023/09/02 08:25:27;;;;;;;2.50;2.10;;;;;;;19.48;95.13;100262.78;4922644;28;20081;-85
2023/09/02 08:27:53;;;;;;;3.80;2.40;;;;;;;19.52;95.61;100269.47;4912007;28;20506;-83
2023/09/02 08:30:20;;;;;;;5.97;2.38;;;;;;;19.55;95.30;100268.28;4941071;28;20070;-84
2023/09/02 08:32:47;;;;;;;3.25;2.40;;;;;;;19.56;95.63;100264.53;4923623;28;20099;-84
2023/09/02 08:35:14;;;;;;;2.53;1.77;;;;;;;19.56;95.46;100261.84;4938756;28;20538;-85
2023/09/02 08:37:41;;;;;;;3.72;2.00;;;;;;;19.59;95.39;100269.56;4941954;28;20143;-88
2023/09/02 08:40:08;;;;;;;4.18;1.85;;;;;;;19.59;94.76;100267.72;4935085;28;20759;-87
2023/09/02 08:42:36;;;;;;;3.25;1.83;;;;;;;19.62;93.95;100267.34;4925127;28;20054;-89
2023/09/02 08:45:08;;;;;;;2.03;1.77;;;;;;;19.62;94.61;100270.03;4929113;28;20075;-88
2023/09/02 08:47:38;;;;;;;5.18;1.67;;;;;;;19.66;94.82;100270.50;4925860;28;20058;-88
2023/09/02 08:50:09;;;;;;;3.10;1.88;;;;;;;19.68;94.49;100268.50;4951893;28;20039;-88
2023/09/02 08:52:37;;;;;;;2.78;1.85;;;;;;;19.69;94.20;100262.94;4924683;28;20063;-89
2023/09/02 08:55:04;;;;;;;2.35;1.60;;;;;;;19.73;94.05;100271.47;4908702;28;20057;-83
2023/09/02 08:57:32;;;;;;;3.10;1.80;;;;;;;19.77;94.48;100274.63;4908340;28;20130;-83
2023/09/02 08:59:59;;;;;;;5.43;1.90;;;;;;;19.78;94.67;100279.00;4951603;28;20048;-83
2023/09/02 09:02:27;;;;;;;2.70;1.80;;;;;;;19.80;95.07;100271.59;4929448;28;20096;-83
2023/09/02 09:05:01;;;;;;;4.88;1.90;;;;;;;19.82;94.97;100273.06;4927303;28;20579;-83
2023/09/02 09:07:29;;;;;;;2.85;1.95;;;;;;;19.87;94.93;100278.75;4939716;28;20640;-84
2023/09/02 09:10:01;;;;;;;2.38;1.98;;;;;;;19.88;95.02;100284.97;4950887;28;20071;-84
2023/09/02 09:12:32;;;;;;;4.63;1.80;;;;;;;19.91;94.71;100284.59;4919658;28;20182;-83
2023/09/02 09:15:01;;;;;;;2.65;1.83;;;;;;;19.95;94.22;100291.28;4936229;28;20062;-84
2023/09/02 09:17:29;;;;;;;4.75;1.75;;;;;;;19.97;94.90;100291.91;4928503;28;20058;-84
2023/09/02 09:19:56;;;;;;;3.45;2.10;;;;;;;20.00;94.63;100299.66;4937973;28;20043;-84
2023/09/02 09:22:24;;;;;;;3.53;1.70;;;;;;;20.02;94.29;100296.75;4928530;28;20122;-83
2023/09/02 09:24:50;;;;;;;2.22;1.85;;;;;;;20.01;93.79;100287.00;4942640;28;20455;-84
2023/09/02 09:27:17;;;;;;;3.63;1.90;;;;;;;20.08;94.05;100282.56;4939148;28;20043;-84
2023/09/02 09:29:45;;;;;;;2.28;1.55;;;;;;;20.09;94.59;100286.91;4906814;28;21056;-84
2023/09/02 09:32:14;;;;;;;1.90;1.40;;;;;;;20.14;94.08;100277.22;4955738;28;20107;-84
2023/09/02 09:34:42;;;;;;;1.45;1.35;;;;;;;20.17;93.99;100281.41;4950931;28;20055;-83
2023/09/02 09:37:09;;;;;;;2.75;1.55;;;;;;;20.19;94.23;100278.53;4939430;28;20047;-83
2023/09/02 09:39:41;;;;;;;1.40;1.30;;;;;;;20.19;93.78;100273.97;4940445;28;20039;-82
2023/09/02 09:42:10;;;;;;;1.60;1.35;;;;;;;20.23;93.64;100277.16;4927017;28;20040;-83
2023/09/02 09:45:09;;;;;;;1.83;1.25;;;;;;;20.15;92.67;100275.41;4906897;29;20054;-83
2023/09/02 09:47:39;;;;;;;1.33;1.23;;;;;;;20.24;92.40;100273.41;4908871;28;20858;-84
2023/09/02 09:50:13;;;;;;;0.93;0.90;;;;;;;20.25;90.99;100269.69;4925949;28;20138;-83
2023/09/02 09:52:56;;;;;;;1.33;1.00;;;;;;;20.30;89.83;100270.81;4912469;28;20042;-84
2023/09/02 09:55:24;;;;;;;1.35;1.02;;;;;;;20.31;89.55;100269.78;4926192;28;20063;-83
2023/09/02 09:57:54;;;;;;;1.52;1.15;;;;;;;20.35;90.21;100273.78;4940100;28;20046;-84
2023/09/02 10:00:21;;;;;;;1.83;0.90;;;;;;;20.38;89.26;100278.78;4937251;28;20487;-83
2023/09/02 10:02:52;;;;;;;1.90;1.35;;;;;;;20.40;88.58;100267.81;4936827;28;20496;-84
2023/09/02 10:05:30;;;;;;;2.33;1.50;;;;;;;20.41;88.71;100263.25;4925601;28;20039;-84
2023/09/02 10:08:04;;;;;;;2.17;1.15;;;;;;;20.46;88.14;100266.22;4930221;28;20499;-84
2023/09/02 10:10:39;;;;;;;2.28;1.38;;;;;;;20.53;89.56;100277.91;4923157;28;20054;-85
2023/09/02 10:13:06;;;;;;;1.63;1.20;;;;;;;20.54;89.52;100271.50;4927461;28;20545;-84
2023/09/02 10:15:33;;;;;;;2.20;1.65;;;;;;;20.58;89.52;100280.91;4891323;28;20042;-85
2023/09/02 10:18:01;;;;;;;2.47;1.60;;;;;;;20.61;89.75;100277.84;4919747;28;20111;-84
2023/09/02 10:20:30;;;;;;;1.73;1.50;;;;;;;20.62;89.70;100273.28;4919353;29;20087;-84
2023/09/02 10:23:06;;;;;;;3.42;1.38;;;;;;;20.60;90.34;100268.91;4948061;28;20071;-84
2023/09/02 10:25:44;;;;;;;2.95;1.55;;;;;;;20.59;89.42;100271.81;4929582;28;20089;-84
2023/09/02 10:28:15;;;;;;;1.85;1.63;;;;;;;20.66;90.30;100271.84;4950565;28;20040;-84
2023/09/02 10:30:48;;;;;;;1.85;1.45;;;;;;;20.68;89.89;100272.50;4941879;28;20040;-84
2023/09/02 10:33:31;;;;;;;2.88;1.88;;;;;;;20.69;90.38;100268.81;4950009;28;20103;-84
2023/09/02 10:36:03;;;;;;;2.47;1.60;;;;;;;20.75;90.04;100260.75;4922486;28;20134;-84
2023/09/02 10:38:36;;;;;;;2.45;1.40;;;;;;;20.77;nan;100258.72;4940053;28;20849;-84
2023/09/02 10:41:11;;;;;;;1.83;1.52;;;;;;;20.77;88.11;100258.72;4936704;28;20058;-84
2023/09/02 10:43:39;;;;;;;3.30;1.92;;;;;;;20.84;88.74;100256.09;4922394;28;20108;-84
2023/09/02 10:46:10;;;;;;;3.03;2.15;;;;;;;20.86;89.07;100270.19;4937449;28;20047;-84
2023/09/02 10:48:38;;;;;;;2.53;1.63;;;;;;;20.90;88.94;100266.09;4935999;28;20057;-84
2023/09/02 10:51:05;;;;;;;5.18;1.58;;;;;;;20.93;89.46;100263.00;4935503;28;20074;-85
2023/09/02 10:53:47;;;;;;;1.88;1.60;;;;;;;20.92;89.69;100268.63;4937216;28;20127;-85
2023/09/02 10:56:24;;;;;;;4.73;1.87;;;;;;;20.95;89.04;100270.94;4934790;28;20114;-85
2023/09/02 10:58:51;;;;;;;2.67;1.40;;;;;;;20.98;88.61;100271.38;4943255;28;20447;-85
2023/09/02 11:01:18;;;;;;;3.20;1.42;;;;;;;21.04;88.00;100264.38;4954073;28;20813;-84
2023/09/02 11:03:47;;;;;;;2.92;1.42;;;;;;;21.05;87.26;100263.34;4927813;28;20051;-82
2023/09/02 11:06:17;;;;;;;2.85;1.58;;;;;;;21.10;87.11;100262.78;4941901;28;20048;-82
2023/09/02 11:08:49;;;;;;;2.15;1.63;;;;;;;21.15;84.73;100258.44;4938790;28;20574;-82
2023/09/02 11:11:17;;;;;;;4.07;1.50;;;;;;;21.16;85.16;100252.00;4941226;28;20114;-82
2023/09/02 11:14:16;;;;;;;2.28;1.52;;;;;;;21.11;83.20;100257.16;4922578;28;20079;-82
2023/09/02 11:16:43;;;;;;;2.58;1.90;;;;;;;21.24;84.93;100257.28;4935904;28;20131;-82
2023/09/02 11:19:11;;;;;;;4.70;2.70;;;;;;;21.26;84.87;100262.47;4937189;28;20054;-82
2023/09/02 11:21:46;;;;;;;1.85;1.52;;;;;;;21.30;84.68;100265.63;4949000;28;20047;-82
2023/09/02 11:24:16;;;;;;;3.03;1.40;;;;;;;21.31;84.88;100256.50;4924990;28;21071;-82
2023/09/02 11:26:53;;;;;;;1.48;1.35;;;;;;;21.31;84.02;100254.63;4931193;28;20061;-82
2023/09/02 11:29:23;;;;;;;1.70;1.50;;;;;;;21.43;85.68;100263.91;4951777;28;20479;-83